sensor_id;sensor_type;location;lat;lon;timestamp;P1;durP1;ratioP1;P2;durP2;ratioP2
20725;SDS011;10524;48.132;8.518;2022-07-03T00:00:31;4.70;;;3.20;;
20725;SDS011;10524;48.132;8.518;2022-07-03T00:02:56;3.88;;;3.47;;
20725;SDS011;10524;48.132;8.518;2022-07-03T00:05:23;4.90;;;3.55;;
20725;SDS011;10524;48.132;8.518;2022-07-03T00:07:49;4.82;;;3.60;;
20725;SDS011;10524;48.132;8.518;2022-07-03T00:10:15;4.00;;;3.33;;
20725;SDS011;10524;48.132;8.518;2022-07-03T00:12:40;4.50;;;3.67;;
20725;SDS011;10524;48.132;8.518;2022-07-03T00:15:08;3.85;;;3.55;;
20725;SDS011;10524;48.132;8.518;2022-07-03T00:17:33;4.05;;;3.65;;
20725;SDS011;10524;48.132;8.518;2022-07-03T00:19:59;4.75;;;4.25;;
20725;SDS011;10524;48.132;8.518;2022-07-03T00:22:25;3.85;;;3.35;;
20725;SDS011;10524;48.132;8.518;2022-07-03T00:24:53;3.35;;;3.05;;
20725;SDS011;10524;48.132;8.518;2022-07-03T00:27:31;3.25;;;2.88;;
20725;SDS011;10524;48.132;8.518;2022-07-03T00:29:59;4.07;;;3.20;;
20725;SDS011;10524;48.132;8.518;2022-07-03T00:32:26;4.05;;;3.30;;
20725;SDS011;10524;48.132;8.518;2022-07-03T00:34:54;4.03;;;3.30;;
20725;SDS011;10524;48.132;8.518;2022-07-03T00:37:23;3.40;;;3.10;;
20725;SDS011;10524;48.132;8.518;2022-07-03T00:39:50;3.53;;;2.90;;
20725;SDS011;10524;48.132;8.518;2022-07-03T00:42:16;3.13;;;2.80;;
20725;SDS011;10524;48.132;8.518;2022-07-03T00:49:44;3.63;;;3.33;;
20725;SDS011;10524;48.132;8.518;2022-07-03T00:52:13;4.00;;;3.60;;
20725;SDS011;10524;48.132;8.518;2022-07-03T00:54:44;4.00;;;3.58;;
20725;SDS011;10524;48.132;8.518;2022-07-03T00:57:16;3.97;;;3.67;;
20725;SDS011;10524;48.132;8.518;2022-07-03T00:59:42;4.18;;;3.78;;
20725;SDS011;10524;48.132;8.518;2022-07-03T01:02:10;3.97;;;3.65;;
20725;SDS011;10524;48.132;8.518;2022-07-03T01:04:52;4.13;;;3.17;;
20725;SDS011;10524;48.132;8.518;2022-07-03T01:07:46;3.50;;;3.20;;
20725;SDS011;10524;48.132;8.518;2022-07-03T01:21:10;4.15;;;3.40;;
20725;SDS011;10524;48.132;8.518;2022-07-03T01:26:29;3.60;;;3.30;;
20725;SDS011;10524;48.132;8.518;2022-07-03T01:29:03;3.50;;;3.20;;
20725;SDS011;10524;48.132;8.518;2022-07-03T01:31:33;4.78;;;3.70;;
20725;SDS011;10524;48.132;8.518;2022-07-03T01:34:02;3.85;;;3.53;;
20725;SDS011;10524;48.132;8.518;2022-07-03T01:36:32;3.80;;;3.25;;
20725;SDS011;10524;48.132;8.518;2022-07-03T01:38:59;4.38;;;3.70;;
20725;SDS011;10524;48.132;8.518;2022-07-03T01:41:27;4.70;;;3.70;;
20725;SDS011;10524;48.132;8.518;2022-07-03T01:43:56;3.85;;;3.45;;
20725;SDS011;10524;48.132;8.518;2022-07-03T01:46:30;5.35;;;3.38;;
20725;SDS011;10524;48.132;8.518;2022-07-03T01:48:57;3.80;;;3.50;;
20725;SDS011;10524;48.132;8.518;2022-07-03T01:51:23;3.90;;;3.50;;
20725;SDS011;10524;48.132;8.518;2022-07-03T01:53:51;5.35;;;3.83;;
20725;SDS011;10524;48.132;8.518;2022-07-03T01:56:18;3.70;;;3.40;;
20725;SDS011;10524;48.132;8.518;2022-07-03T01:58:45;3.80;;;3.50;;
20725;SDS011;10524;48.132;8.518;2022-07-03T02:03:39;3.55;;;3.25;;
20725;SDS011;10524;48.132;8.518;2022-07-03T02:06:12;5.20;;;3.88;;
20725;SDS011;10524;48.132;8.518;2022-07-03T02:08:54;5.07;;;4.13;;
20725;SDS011;10524;48.132;8.518;2022-07-03T02:11:40;4.22;;;3.80;;
20725;SDS011;10524;48.132;8.518;2022-07-03T02:14:14;3.75;;;3.20;;
20725;SDS011;10524;48.132;8.518;2022-07-03T02:19:30;4.10;;;3.70;;
20725;SDS011;10524;48.132;8.518;2022-07-03T02:22:08;4.72;;;3.75;;
20725;SDS011;10524;48.132;8.518;2022-07-03T02:24:41;4.10;;;3.70;;
20725;SDS011;10524;48.132;8.518;2022-07-03T02:27:12;4.18;;;3.72;;
20725;SDS011;10524;48.132;8.518;2022-07-03T02:29:54;4.50;;;4.10;;
20725;SDS011;10524;48.132;8.518;2022-07-03T02:32:26;4.63;;;4.07;;
20725;SDS011;10524;48.132;8.518;2022-07-03T02:35:00;4.53;;;4.13;;
20725;SDS011;10524;48.132;8.518;2022-07-03T02:37:45;4.55;;;4.15;;
20725;SDS011;10524;48.132;8.518;2022-07-03T02:45:31;5.30;;;4.38;;
20725;SDS011;10524;48.132;8.518;2022-07-03T02:48:04;4.78;;;4.22;;
20725;SDS011;10524;48.132;8.518;2022-07-03T02:50:36;4.63;;;3.83;;
20725;SDS011;10524;48.132;8.518;2022-07-03T02:53:14;5.50;;;4.40;;
20725;SDS011;10524;48.132;8.518;2022-07-03T02:55:57;4.18;;;3.70;;
20725;SDS011;10524;48.132;8.518;2022-07-03T03:01:29;5.68;;;4.90;;
20725;SDS011;10524;48.132;8.518;2022-07-03T03:04:02;5.32;;;4.82;;
20725;SDS011;10524;48.132;8.518;2022-07-03T03:09:14;5.28;;;4.78;;
20725;SDS011;10524;48.132;8.518;2022-07-03T03:11:46;5.30;;;4.85;;
20725;SDS011;10524;48.132;8.518;2022-07-03T03:14:14;5.65;;;4.85;;
20725;SDS011;10524;48.132;8.518;2022-07-03T03:16:46;5.30;;;4.57;;
20725;SDS011;10524;48.132;8.518;2022-07-03T03:19:12;4.70;;;4.30;;
20725;SDS011;10524;48.132;8.518;2022-07-03T03:21:42;6.45;;;4.53;;
20725;SDS011;10524;48.132;8.518;2022-07-03T03:24:24;5.68;;;5.07;;
20725;SDS011;10524;48.132;8.518;2022-07-03T03:26:50;5.70;;;5.20;;
20725;SDS011;10524;48.132;8.518;2022-07-03T03:29:16;5.53;;;4.72;;
20725;SDS011;10524;48.132;8.518;2022-07-03T03:31:42;8.30;;;4.70;;
20725;SDS011;10524;48.132;8.518;2022-07-03T03:34:08;5.45;;;4.93;;
20725;SDS011;10524;48.132;8.518;2022-07-03T03:36:34;5.55;;;4.63;;
20725;SDS011;10524;48.132;8.518;2022-07-03T03:39:00;4.35;;;3.95;;
20725;SDS011;10524;48.132;8.518;2022-07-03T03:41:26;5.07;;;4.22;;
20725;SDS011;10524;48.132;8.518;2022-07-03T03:43:52;5.20;;;4.70;;
20725;SDS011;10524;48.132;8.518;2022-07-03T03:46:17;6.28;;;4.85;;
20725;SDS011;10524;48.132;8.518;2022-07-03T03:48:43;4.85;;;4.00;;
20725;SDS011;10524;48.132;8.518;2022-07-03T03:51:09;5.97;;;5.00;;
20725;SDS011;10524;48.132;8.518;2022-07-03T03:53:35;5.93;;;5.32;;
20725;SDS011;10524;48.132;8.518;2022-07-03T03:58:29;4.78;;;4.38;;
20725;SDS011;10524;48.132;8.518;2022-07-03T04:00:56;7.25;;;5.25;;
20725;SDS011;10524;48.132;8.518;2022-07-03T04:03:26;6.10;;;5.50;;
20725;SDS011;10524;48.132;8.518;2022-07-03T04:05:53;5.93;;;5.20;;
20725;SDS011;10524;48.132;8.518;2022-07-03T04:08:19;7.18;;;5.68;;
20725;SDS011;10524;48.132;8.518;2022-07-03T04:10:46;5.40;;;4.90;;
20725;SDS011;10524;48.132;8.518;2022-07-03T04:13:13;5.82;;;4.60;;
20725;SDS011;10524;48.132;8.518;2022-07-03T04:15:39;4.80;;;4.00;;
20725;SDS011;10524;48.132;8.518;2022-07-03T04:18:05;6.03;;;4.07;;
20725;SDS011;10524;48.132;8.518;2022-07-03T04:20:30;3.78;;;3.47;;
20725;SDS011;10524;48.132;8.518;2022-07-03T04:22:57;3.92;;;3.47;;
20725;SDS011;10524;48.132;8.518;2022-07-03T04:25:23;4.45;;;3.10;;
20725;SDS011;10524;48.132;8.518;2022-07-03T04:27:48;4.10;;;2.90;;
20725;SDS011;10524;48.132;8.518;2022-07-03T04:30:14;3.17;;;2.88;;
20725;SDS011;10524;48.132;8.518;2022-07-03T04:32:41;3.25;;;2.95;;
20725;SDS011;10524;48.132;8.518;2022-07-03T04:35:07;2.90;;;2.63;;
20725;SDS011;10524;48.132;8.518;2022-07-03T04:37:33;2.72;;;2.38;;
20725;SDS011;10524;48.132;8.518;2022-07-03T04:39:58;3.63;;;2.40;;
20725;SDS011;10524;48.132;8.518;2022-07-03T04:42:27;2.60;;;2.40;;
20725;SDS011;10524;48.132;8.518;2022-07-03T04:44:53;3.78;;;2.22;;
20725;SDS011;10524;48.132;8.518;2022-07-03T04:47:19;2.40;;;2.03;;
20725;SDS011;10524;48.132;8.518;2022-07-03T04:49:45;2.67;;;1.90;;
20725;SDS011;10524;48.132;8.518;2022-07-03T04:52:11;2.63;;;1.75;;
20725;SDS011;10524;48.132;8.518;2022-07-03T04:54:37;2.60;;;1.70;;
20725;SDS011;10524;48.132;8.518;2022-07-03T04:57:02;2.40;;;1.77;;
20725;SDS011;10524;48.132;8.518;2022-07-03T04:59:29;1.88;;;1.67;;
20725;SDS011;10524;48.132;8.518;2022-07-03T05:01:54;2.20;;;1.60;;
20725;SDS011;10524;48.132;8.518;2022-07-03T05:04:20;2.17;;;1.73;;
20725;SDS011;10524;48.132;8.518;2022-07-03T05:06:46;1.98;;;1.80;;
20725;SDS011;10524;48.132;8.518;2022-07-03T05:09:12;1.95;;;1.85;;
20725;SDS011;10524;48.132;8.518;2022-07-03T05:11:38;1.60;;;1.50;;
20725;SDS011;10524;48.132;8.518;2022-07-03T05:14:03;3.05;;;1.70;;
20725;SDS011;10524;48.132;8.518;2022-07-03T05:16:29;1.70;;;1.60;;
20725;SDS011;10524;48.132;8.518;2022-07-03T05:18:55;2.53;;;1.60;;
20725;SDS011;10524;48.132;8.518;2022-07-03T05:21:21;1.90;;;1.52;;
20725;SDS011;10524;48.132;8.518;2022-07-03T05:23:47;2.40;;;1.40;;
20725;SDS011;10524;48.132;8.518;2022-07-03T05:26:13;2.08;;;1.50;;
20725;SDS011;10524;48.132;8.518;2022-07-03T05:28:39;1.83;;;1.50;;
20725;SDS011;10524;48.132;8.518;2022-07-03T05:31:05;2.17;;;1.40;;
20725;SDS011;10524;48.132;8.518;2022-07-03T05:33:30;3.40;;;1.40;;
20725;SDS011;10524;48.132;8.518;2022-07-03T05:35:57;1.98;;;1.67;;
20725;SDS011;10524;48.132;8.518;2022-07-03T05:38:23;2.25;;;1.80;;
20725;SDS011;10524;48.132;8.518;2022-07-03T05:41:08;1.50;;;1.40;;
20725;SDS011;10524;48.132;8.518;2022-07-03T05:43:34;2.00;;;1.42;;
20725;SDS011;10524;48.132;8.518;2022-07-03T05:45:59;4.18;;;1.73;;
20725;SDS011;10524;48.132;8.518;2022-07-03T05:48:25;3.25;;;1.40;;
20725;SDS011;10524;48.132;8.518;2022-07-03T05:50:51;1.73;;;1.30;;
20725;SDS011;10524;48.132;8.518;2022-07-03T05:53:17;2.85;;;1.60;;
20725;SDS011;10524;48.132;8.518;2022-07-03T05:55:43;2.00;;;1.35;;
20725;SDS011;10524;48.132;8.518;2022-07-03T05:58:08;1.10;;;1.10;;
20725;SDS011;10524;48.132;8.518;2022-07-03T06:00:34;2.33;;;1.40;;
20725;SDS011;10524;48.132;8.518;2022-07-03T06:03:00;2.17;;;1.20;;
20725;SDS011;10524;48.132;8.518;2022-07-03T06:05:27;3.05;;;1.17;;
20725;SDS011;10524;48.132;8.518;2022-07-03T06:07:53;1.95;;;1.15;;
20725;SDS011;10524;48.132;8.518;2022-07-03T06:10:18;1.55;;;1.10;;
20725;SDS011;10524;48.132;8.518;2022-07-03T06:12:44;2.60;;;1.10;;
20725;SDS011;10524;48.132;8.518;2022-07-03T06:15:10;2.22;;;1.15;;
20725;SDS011;10524;48.132;8.518;2022-07-03T06:17:35;1.20;;;1.10;;
20725;SDS011;10524;48.132;8.518;2022-07-03T06:20:04;1.40;;;1.10;;
20725;SDS011;10524;48.132;8.518;2022-07-03T06:22:31;2.25;;;0.95;;
20725;SDS011;10524;48.132;8.518;2022-07-03T06:24:57;2.45;;;1.25;;
20725;SDS011;10524;48.132;8.518;2022-07-03T06:27:23;1.23;;;0.70;;
20725;SDS011;10524;48.132;8.518;2022-07-03T06:29:49;1.40;;;0.85;;
20725;SDS011;10524;48.132;8.518;2022-07-03T06:32:15;2.05;;;0.60;;
20725;SDS011;10524;48.132;8.518;2022-07-03T06:34:41;1.05;;;0.68;;
20725;SDS011;10524;48.132;8.518;2022-07-03T06:37:10;0.98;;;0.60;;
20725;SDS011;10524;48.132;8.518;2022-07-03T06:39:36;0.90;;;0.60;;
20725;SDS011;10524;48.132;8.518;2022-07-03T06:42:03;1.48;;;0.80;;
20725;SDS011;10524;48.132;8.518;2022-07-03T06:44:29;0.95;;;0.70;;
20725;SDS011;10524;48.132;8.518;2022-07-03T06:46:55;0.68;;;0.60;;
20725;SDS011;10524;48.132;8.518;2022-07-03T06:49:21;1.75;;;0.60;;
20725;SDS011;10524;48.132;8.518;2022-07-03T06:51:47;1.00;;;0.70;;
20725;SDS011;10524;48.132;8.518;2022-07-03T06:54:13;0.90;;;0.55;;
20725;SDS011;10524;48.132;8.518;2022-07-03T06:56:38;0.60;;;0.60;;
20725;SDS011;10524;48.132;8.518;2022-07-03T06:59:04;1.55;;;0.52;;
20725;SDS011;10524;48.132;8.518;2022-07-03T07:01:30;0.95;;;0.60;;
20725;SDS011;10524;48.132;8.518;2022-07-03T07:03:55;0.98;;;0.50;;
20725;SDS011;10524;48.132;8.518;2022-07-03T07:06:21;1.95;;;0.50;;
20725;SDS011;10524;48.132;8.518;2022-07-03T07:08:47;1.15;;;0.52;;
20725;SDS011;10524;48.132;8.518;2022-07-03T07:11:13;2.10;;;0.60;;
20725;SDS011;10524;48.132;8.518;2022-07-03T07:13:39;1.00;;;0.50;;
20725;SDS011;10524;48.132;8.518;2022-07-03T07:16:05;0.40;;;0.40;;
20725;SDS011;10524;48.132;8.518;2022-07-03T07:18:31;0.73;;;0.40;;
20725;SDS011;10524;48.132;8.518;2022-07-03T07:20:57;0.88;;;0.50;;
20725;SDS011;10524;48.132;8.518;2022-07-03T07:23:22;0.50;;;0.50;;
20725;SDS011;10524;48.132;8.518;2022-07-03T07:25:48;0.90;;;0.40;;
20725;SDS011;10524;48.132;8.518;2022-07-03T07:28:14;0.50;;;0.40;;
20725;SDS011;10524;48.132;8.518;2022-07-03T07:30:40;1.67;;;0.45;;
20725;SDS011;10524;48.132;8.518;2022-07-03T07:33:06;1.80;;;0.40;;
20725;SDS011;10524;48.132;8.518;2022-07-03T07:35:32;0.80;;;0.40;;
20725;SDS011;10524;48.132;8.518;2022-07-03T07:37:57;1.90;;;0.50;;
20725;SDS011;10524;48.132;8.518;2022-07-03T07:40:23;0.73;;;0.40;;
20725;SDS011;10524;48.132;8.518;2022-07-03T07:42:49;0.65;;;0.30;;
20725;SDS011;10524;48.132;8.518;2022-07-03T07:45:15;0.50;;;0.40;;
20725;SDS011;10524;48.132;8.518;2022-07-03T07:47:41;1.13;;;0.40;;
20725;SDS011;10524;48.132;8.518;2022-07-03T07:50:06;0.43;;;0.35;;
20725;SDS011;10524;48.132;8.518;2022-07-03T07:52:33;0.93;;;0.45;;
20725;SDS011;10524;48.132;8.518;2022-07-03T07:54:58;0.60;;;0.40;;
20725;SDS011;10524;48.132;8.518;2022-07-03T07:57:24;0.50;;;0.50;;
20725;SDS011;10524;48.132;8.518;2022-07-03T07:59:49;0.50;;;0.40;;
20725;SDS011;10524;48.132;8.518;2022-07-03T08:02:15;0.40;;;0.40;;
20725;SDS011;10524;48.132;8.518;2022-07-03T08:04:59;0.65;;;0.40;;
20725;SDS011;10524;48.132;8.518;2022-07-03T08:07:43;1.33;;;0.40;;
20725;SDS011;10524;48.132;8.518;2022-07-03T08:10:09;6.65;;;0.60;;
20725;SDS011;10524;48.132;8.518;2022-07-03T08:12:34;0.95;;;0.45;;
20725;SDS011;10524;48.132;8.518;2022-07-03T08:15:00;0.45;;;0.32;;
20725;SDS011;10524;48.132;8.518;2022-07-03T08:17:26;1.48;;;0.32;;
20725;SDS011;10524;48.132;8.518;2022-07-03T08:19:53;0.35;;;0.30;;
20725;SDS011;10524;48.132;8.518;2022-07-03T08:22:18;0.47;;;0.47;;
20725;SDS011;10524;48.132;8.518;2022-07-03T08:24:44;1.00;;;0.40;;
20725;SDS011;10524;48.132;8.518;2022-07-03T08:27:10;2.35;;;0.40;;
20725;SDS011;10524;48.132;8.518;2022-07-03T08:29:36;0.90;;;0.30;;
20725;SDS011;10524;48.132;8.518;2022-07-03T08:32:01;0.20;;;0.20;;
20725;SDS011;10524;48.132;8.518;2022-07-03T08:34:27;1.70;;;0.40;;
20725;SDS011;10524;48.132;8.518;2022-07-03T08:36:53;0.50;;;0.30;;
20725;SDS011;10524;48.132;8.518;2022-07-03T08:41:54;0.47;;;0.38;;
20725;SDS011;10524;48.132;8.518;2022-07-03T08:44:21;1.25;;;0.38;;
20725;SDS011;10524;48.132;8.518;2022-07-03T08:46:49;0.82;;;0.40;;
20725;SDS011;10524;48.132;8.518;2022-07-03T08:49:16;0.65;;;0.35;;
20725;SDS011;10524;48.132;8.518;2022-07-03T08:51:44;0.60;;;0.40;;
20725;SDS011;10524;48.132;8.518;2022-07-03T08:54:11;0.50;;;0.40;;
20725;SDS011;10524;48.132;8.518;2022-07-03T08:56:37;0.43;;;0.30;;
20725;SDS011;10524;48.132;8.518;2022-07-03T08:59:05;2.00;;;0.50;;
20725;SDS011;10524;48.132;8.518;2022-07-03T09:01:32;0.40;;;0.30;;
20725;SDS011;10524;48.132;8.518;2022-07-03T09:03:59;1.40;;;0.30;;
20725;SDS011;10524;48.132;8.518;2022-07-03T09:06:26;0.65;;;0.40;;
20725;SDS011;10524;48.132;8.518;2022-07-03T09:08:59;1.60;;;0.65;;
20725;SDS011;10524;48.132;8.518;2022-07-03T09:11:32;0.50;;;0.40;;
20725;SDS011;10524;48.132;8.518;2022-07-03T09:13:58;0.75;;;0.40;;
20725;SDS011;10524;48.132;8.518;2022-07-03T09:16:24;1.02;;;0.40;;
20725;SDS011;10524;48.132;8.518;2022-07-03T09:18:49;0.40;;;0.30;;
20725;SDS011;10524;48.132;8.518;2022-07-03T09:21:16;0.73;;;0.40;;
20725;SDS011;10524;48.132;8.518;2022-07-03T09:23:42;0.50;;;0.30;;
20725;SDS011;10524;48.132;8.518;2022-07-03T09:26:13;0.73;;;0.30;;
20725;SDS011;10524;48.132;8.518;2022-07-03T09:31:17;1.10;;;0.35;;
20725;SDS011;10524;48.132;8.518;2022-07-03T09:34:18;0.47;;;0.30;;
20725;SDS011;10524;48.132;8.518;2022-07-03T09:36:47;1.52;;;0.40;;
20725;SDS011;10524;48.132;8.518;2022-07-03T09:47:08;0.90;;;0.40;;
20725;SDS011;10524;48.132;8.518;2022-07-03T09:49:51;0.52;;;0.30;;
20725;SDS011;10524;48.132;8.518;2022-07-03T10:00:18;1.50;;;0.40;;
20725;SDS011;10524;48.132;8.518;2022-07-03T10:02:53;1.40;;;0.52;;
20725;SDS011;10524;48.132;8.518;2022-07-03T10:05:23;0.90;;;0.50;;
20725;SDS011;10524;48.132;8.518;2022-07-03T10:10:20;20.88;;;2.38;;
20725;SDS011;10524;48.132;8.518;2022-07-03T10:12:51;2.13;;;0.70;;
20725;SDS011;10524;48.132;8.518;2022-07-03T10:15:17;1.08;;;0.45;;
20725;SDS011;10524;48.132;8.518;2022-07-03T10:17:46;1.20;;;0.38;;
20725;SDS011;10524;48.132;8.518;2022-07-03T10:20:15;0.95;;;0.40;;
20725;SDS011;10524;48.132;8.518;2022-07-03T10:22:45;3.85;;;0.50;;
20725;SDS011;10524;48.132;8.518;2022-07-03T10:25:13;0.47;;;0.38;;
20725;SDS011;10524;48.132;8.518;2022-07-03T10:27:40;1.80;;;0.40;;
20725;SDS011;10524;48.132;8.518;2022-07-03T10:30:06;1.27;;;0.40;;
20725;SDS011;10524;48.132;8.518;2022-07-03T10:32:32;3.17;;;0.50;;
20725;SDS011;10524;48.132;8.518;2022-07-03T10:35:00;0.95;;;0.50;;
20725;SDS011;10524;48.132;8.518;2022-07-03T10:37:28;0.70;;;0.45;;
20725;SDS011;10524;48.132;8.518;2022-07-03T10:40:20;1.20;;;0.50;;
20725;SDS011;10524;48.132;8.518;2022-07-03T10:43:15;1.15;;;0.50;;
20725;SDS011;10524;48.132;8.518;2022-07-03T10:46:13;2.58;;;0.45;;
20725;SDS011;10524;48.132;8.518;2022-07-03T10:51:25;2.15;;;0.60;;
20725;SDS011;10524;48.132;8.518;2022-07-03T11:25:43;1.42;;;0.60;;
20725;SDS011;10524;48.132;8.518;2022-07-03T11:36:31;1.80;;;0.85;;
20725;SDS011;10524;48.132;8.518;2022-07-03T11:44:03;1.45;;;0.60;;
20725;SDS011;10524;48.132;8.518;2022-07-03T11:46:37;2.22;;;0.70;;
20725;SDS011;10524;48.132;8.518;2022-07-03T11:49:13;1.95;;;0.68;;
20725;SDS011;10524;48.132;8.518;2022-07-03T11:51:41;1.95;;;0.60;;
20725;SDS011;10524;48.132;8.518;2022-07-03T11:54:07;1.27;;;0.70;;
20725;SDS011;10524;48.132;8.518;2022-07-03T11:56:34;2.38;;;0.60;;
20725;SDS011;10524;48.132;8.518;2022-07-03T11:59:01;2.33;;;0.70;;
20725;SDS011;10524;48.132;8.518;2022-07-03T12:04:02;5.13;;;0.70;;
20725;SDS011;10524;48.132;8.518;2022-07-03T12:06:38;1.13;;;0.55;;
20725;SDS011;10524;48.132;8.518;2022-07-03T12:09:23;1.23;;;0.50;;
20725;SDS011;10524;48.132;8.518;2022-07-03T12:14:36;2.38;;;0.60;;
20725;SDS011;10524;48.132;8.518;2022-07-03T12:17:02;1.92;;;0.50;;
20725;SDS011;10524;48.132;8.518;2022-07-03T12:19:28;2.65;;;0.60;;
20725;SDS011;10524;48.132;8.518;2022-07-03T12:21:54;1.20;;;0.50;;
20725;SDS011;10524;48.132;8.518;2022-07-03T12:24:20;1.08;;;0.43;;
20725;SDS011;10524;48.132;8.518;2022-07-03T12:26:46;0.75;;;0.43;;
20725;SDS011;10524;48.132;8.518;2022-07-03T12:29:13;0.70;;;0.50;;
20725;SDS011;10524;48.132;8.518;2022-07-03T12:31:40;2.92;;;0.60;;
20725;SDS011;10524;48.132;8.518;2022-07-03T12:34:08;1.63;;;0.60;;
20725;SDS011;10524;48.132;8.518;2022-07-03T12:36:36;1.80;;;0.52;;
20725;SDS011;10524;48.132;8.518;2022-07-03T12:39:02;1.23;;;0.60;;
20725;SDS011;10524;48.132;8.518;2022-07-03T12:41:28;1.30;;;0.73;;
20725;SDS011;10524;48.132;8.518;2022-07-03T12:43:57;1.65;;;0.45;;
20725;SDS011;10524;48.132;8.518;2022-07-03T12:46:25;1.40;;;0.55;;
20725;SDS011;10524;48.132;8.518;2022-07-03T12:49:07;2.85;;;0.50;;
20725;SDS011;10524;48.132;8.518;2022-07-03T12:51:47;1.35;;;0.50;;
20725;SDS011;10524;48.132;8.518;2022-07-03T12:57:02;1.60;;;0.40;;
20725;SDS011;10524;48.132;8.518;2022-07-03T13:00:33;0.88;;;0.50;;
20725;SDS011;10524;48.132;8.518;2022-07-03T13:02:45;0.70;;;0.38;;
20725;SDS011;10524;48.132;8.518;2022-07-03T13:07:40;0.98;;;0.57;;
20725;SDS011;10524;48.132;8.518;2022-07-03T13:10:07;0.70;;;0.50;;
20725;SDS011;10524;48.132;8.518;2022-07-03T13:12:33;1.35;;;0.50;;
20725;SDS011;10524;48.132;8.518;2022-07-03T13:14:59;1.25;;;0.70;;
20725;SDS011;10524;48.132;8.518;2022-07-03T13:22:51;2.58;;;0.60;;
20725;SDS011;10524;48.132;8.518;2022-07-03T13:25:18;0.80;;;0.47;;
20725;SDS011;10524;48.132;8.518;2022-07-03T13:27:44;0.73;;;0.50;;
20725;SDS011;10524;48.132;8.518;2022-07-03T13:30:10;0.90;;;0.50;;
20725;SDS011;10524;48.132;8.518;2022-07-03T13:32:45;2.20;;;0.60;;
20725;SDS011;10524;48.132;8.518;2022-07-03T13:35:11;0.52;;;0.50;;
20725;SDS011;10524;48.132;8.518;2022-07-03T13:37:37;0.82;;;0.50;;
20725;SDS011;10524;48.132;8.518;2022-07-03T13:40:04;0.63;;;0.43;;
20725;SDS011;10524;48.132;8.518;2022-07-03T13:42:30;0.50;;;0.40;;
20725;SDS011;10524;48.132;8.518;2022-07-03T13:44:56;1.08;;;0.55;;
20725;SDS011;10524;48.132;8.518;2022-07-03T13:47:22;1.63;;;0.50;;
20725;SDS011;10524;48.132;8.518;2022-07-03T13:49:47;1.52;;;0.68;;
20725;SDS011;10524;48.132;8.518;2022-07-03T13:52:13;1.08;;;0.60;;
20725;SDS011;10524;48.132;8.518;2022-07-03T13:54:39;0.90;;;0.55;;
20725;SDS011;10524;48.132;8.518;2022-07-03T13:57:05;1.05;;;0.40;;
20725;SDS011;10524;48.132;8.518;2022-07-03T13:59:30;0.88;;;0.30;;
20725;SDS011;10524;48.132;8.518;2022-07-03T14:01:57;1.45;;;0.57;;
20725;SDS011;10524;48.132;8.518;2022-07-03T14:04:24;0.90;;;0.50;;
20725;SDS011;10524;48.132;8.518;2022-07-03T14:06:50;0.40;;;0.38;;
20725;SDS011;10524;48.132;8.518;2022-07-03T14:09:15;1.42;;;0.50;;
20725;SDS011;10524;48.132;8.518;2022-07-03T14:11:41;0.88;;;0.40;;
20725;SDS011;10524;48.132;8.518;2022-07-03T14:14:07;2.25;;;0.57;;
20725;SDS011;10524;48.132;8.518;2022-07-03T14:16:33;1.92;;;0.60;;
20725;SDS011;10524;48.132;8.518;2022-07-03T14:18:59;3.42;;;0.50;;
20725;SDS011;10524;48.132;8.518;2022-07-03T14:21:24;0.75;;;0.40;;
20725;SDS011;10524;48.132;8.518;2022-07-03T14:23:51;0.65;;;0.50;;
20725;SDS011;10524;48.132;8.518;2022-07-03T14:26:16;1.50;;;0.70;;
20725;SDS011;10524;48.132;8.518;2022-07-03T14:29:03;2.55;;;0.80;;
20725;SDS011;10524;48.132;8.518;2022-07-03T14:31:47;0.75;;;0.60;;
20725;SDS011;10524;48.132;8.518;2022-07-03T14:34:32;1.85;;;0.98;;
20725;SDS011;10524;48.132;8.518;2022-07-03T14:36:57;0.65;;;0.65;;
20725;SDS011;10524;48.132;8.518;2022-07-03T14:39:23;1.38;;;0.40;;
20725;SDS011;10524;48.132;8.518;2022-07-03T14:41:48;1.33;;;0.50;;
20725;SDS011;10524;48.132;8.518;2022-07-03T14:44:14;1.40;;;0.52;;
20725;SDS011;10524;48.132;8.518;2022-07-03T14:46:40;1.13;;;0.60;;
20725;SDS011;10524;48.132;8.518;2022-07-03T14:49:07;3.42;;;1.30;;
20725;SDS011;10524;48.132;8.518;2022-07-03T14:51:33;0.70;;;0.50;;
20725;SDS011;10524;48.132;8.518;2022-07-03T14:53:58;1.25;;;0.60;;
20725;SDS011;10524;48.132;8.518;2022-07-03T14:56:24;2.63;;;0.52;;
20725;SDS011;10524;48.132;8.518;2022-07-03T14:58:50;1.02;;;0.40;;
20725;SDS011;10524;48.132;8.518;2022-07-03T15:01:19;1.48;;;0.50;;
20725;SDS011;10524;48.132;8.518;2022-07-03T15:04:08;1.25;;;0.70;;
20725;SDS011;10524;48.132;8.518;2022-07-03T15:06:34;0.82;;;0.52;;
20725;SDS011;10524;48.132;8.518;2022-07-03T15:09:01;2.72;;;0.85;;
20725;SDS011;10524;48.132;8.518;2022-07-03T15:11:38;4.53;;;0.73;;
20725;SDS011;10524;48.132;8.518;2022-07-03T15:14:28;2.33;;;0.90;;
20725;SDS011;10524;48.132;8.518;2022-07-03T15:16:54;4.63;;;0.95;;
20725;SDS011;10524;48.132;8.518;2022-07-03T15:19:23;1.52;;;0.82;;
20725;SDS011;10524;48.132;8.518;2022-07-03T15:21:49;2.08;;;1.20;;
20725;SDS011;10524;48.132;8.518;2022-07-03T15:24:16;1.38;;;0.50;;
20725;SDS011;10524;48.132;8.518;2022-07-03T15:26:48;2.75;;;0.50;;
20725;SDS011;10524;48.132;8.518;2022-07-03T15:29:16;1.00;;;0.60;;
20725;SDS011;10524;48.132;8.518;2022-07-03T15:31:42;0.85;;;0.50;;
20725;SDS011;10524;48.132;8.518;2022-07-03T15:34:08;3.38;;;0.60;;
20725;SDS011;10524;48.132;8.518;2022-07-03T15:39:32;1.83;;;0.60;;
20725;SDS011;10524;48.132;8.518;2022-07-03T15:50:16;0.93;;;0.68;;
20725;SDS011;10524;48.132;8.518;2022-07-03T15:52:52;2.37;;;0.63;;
20725;SDS011;10524;48.132;8.518;2022-07-03T15:55:19;0.95;;;0.40;;
20725;SDS011;10524;48.132;8.518;2022-07-03T16:00:18;1.08;;;0.60;;
20725;SDS011;10524;48.132;8.518;2022-07-03T16:05:41;2.28;;;0.60;;
20725;SDS011;10524;48.132;8.518;2022-07-03T16:08:09;3.40;;;0.70;;
20725;SDS011;10524;48.132;8.518;2022-07-03T16:10:35;1.27;;;0.60;;
20725;SDS011;10524;48.132;8.518;2022-07-03T16:13:02;0.73;;;0.60;;
20725;SDS011;10524;48.132;8.518;2022-07-03T16:15:36;0.73;;;0.45;;
20725;SDS011;10524;48.132;8.518;2022-07-03T16:18:07;0.90;;;0.63;;
20725;SDS011;10524;48.132;8.518;2022-07-03T16:20:33;1.42;;;0.60;;
20725;SDS011;10524;48.132;8.518;2022-07-03T16:23:01;1.75;;;0.63;;
20725;SDS011;10524;48.132;8.518;2022-07-03T16:25:29;1.02;;;0.75;;
20725;SDS011;10524;48.132;8.518;2022-07-03T16:27:57;1.77;;;0.68;;
20725;SDS011;10524;48.132;8.518;2022-07-03T16:30:25;0.90;;;0.50;;
20725;SDS011;10524;48.132;8.518;2022-07-03T16:32:51;1.90;;;0.70;;
20725;SDS011;10524;48.132;8.518;2022-07-03T16:38:30;1.98;;;0.60;;
20725;SDS011;10524;48.132;8.518;2022-07-03T16:41:25;1.52;;;0.77;;
20725;SDS011;10524;48.132;8.518;2022-07-03T16:43:54;0.85;;;0.70;;
20725;SDS011;10524;48.132;8.518;2022-07-03T16:46:22;0.98;;;0.50;;
20725;SDS011;10524;48.132;8.518;2022-07-03T16:48:50;1.15;;;0.50;;
20725;SDS011;10524;48.132;8.518;2022-07-03T16:51:19;1.02;;;0.50;;
20725;SDS011;10524;48.132;8.518;2022-07-03T16:53:49;0.77;;;0.50;;
20725;SDS011;10524;48.132;8.518;2022-07-03T16:56:15;0.95;;;0.50;;
20725;SDS011;10524;48.132;8.518;2022-07-03T16:58:42;0.80;;;0.60;;
20725;SDS011;10524;48.132;8.518;2022-07-03T17:01:09;2.05;;;0.60;;
20725;SDS011;10524;48.132;8.518;2022-07-03T17:03:35;1.42;;;0.63;;
20725;SDS011;10524;48.132;8.518;2022-07-03T17:06:02;1.02;;;0.70;;
20725;SDS011;10524;48.132;8.518;2022-07-03T17:08:29;1.05;;;0.70;;
20725;SDS011;10524;48.132;8.518;2022-07-03T17:10:56;4.50;;;1.00;;
20725;SDS011;10524;48.132;8.518;2022-07-03T17:13:22;4.43;;;0.63;;
20725;SDS011;10524;48.132;8.518;2022-07-03T17:15:48;1.52;;;0.70;;
20725;SDS011;10524;48.132;8.518;2022-07-03T17:18:15;1.77;;;0.60;;
20725;SDS011;10524;48.132;8.518;2022-07-03T17:20:42;0.70;;;0.50;;